createdAt,value
2018-10-19T00:00:31.080Z,74.30
2018-10-19T00:06:00.368Z,74.50
2018-10-19T00:11:29.689Z,74.50
2018-10-19T00:17:01.079Z,74.60
2018-10-19T00:22:30.373Z,74.70
2018-10-19T00:27:59.686Z,74.60
2018-10-19T00:33:28.993Z,74.70
2018-10-19T00:38:58.396Z,74.80
2018-10-19T00:44:27.609Z,75.00
2018-10-19T00:49:58.205Z,74.80
2018-10-19T00:55:28.544Z,74.80
2018-10-19T01:00:57.784Z,74.80
2018-10-19T01:06:27.225Z,74.90
2018-10-19T01:11:56.600Z,74.90
2018-10-19T01:17:25.905Z,75.00
2018-10-19T01:22:56.350Z,75.00
2018-10-19T01:28:25.665Z,74.90
2018-10-19T01:33:55.041Z,75.00
2018-10-19T01:39:24.246Z,75.00
2018-10-19T01:44:54.540Z,75.10
2018-10-19T01:50:23.736Z,75.00
2018-10-19T01:55:53.141Z,75.00
2018-10-19T02:01:23.052Z,75.10
2018-10-19T02:06:52.344Z,75.10
2018-10-19T02:12:21.669Z,75.20
2018-10-19T02:17:52.112Z,75.20
2018-10-19T02:23:21.461Z,75.30
2018-10-19T02:28:50.911Z,75.30
2018-10-19T02:34:21.246Z,75.20
2018-10-19T02:39:50.620Z,75.30
2018-10-19T02:45:22.020Z,75.30
2018-10-19T02:50:51.280Z,75.20
2018-10-19T02:56:21.655Z,75.20
2018-10-19T03:01:50.920Z,75.30
2018-10-19T03:07:22.269Z,75.40
2018-10-19T03:12:51.888Z,75.30
2018-10-19T03:18:21.454Z,75.50
2018-10-19T03:23:50.817Z,75.40
2018-10-19T03:29:20.326Z,75.60
2018-10-19T03:34:49.683Z,75.60
2018-10-19T03:40:19.233Z,75.60
2018-10-19T03:45:48.632Z,75.60
2018-10-19T03:51:19.199Z,75.70
2018-10-19T03:56:48.446Z,75.70
2018-10-19T04:02:18.532Z,75.70
2018-10-19T04:07:48.767Z,76.00
2018-10-19T04:13:18.068Z,76.00
2018-10-19T04:18:48.533Z,76.00
2018-10-19T04:24:17.920Z,76.10
2018-10-19T04:29:47.356Z,76.20
2018-10-19T04:35:16.739Z,76.30
2018-10-19T04:40:46.656Z,76.40
2018-10-19T04:46:15.990Z,76.60
2018-10-19T04:51:47.233Z,76.30
2018-10-19T04:57:16.675Z,76.40
2018-10-19T05:02:46.115Z,76.20
2018-10-19T05:08:15.310Z,76.20
2018-10-19T05:13:45.578Z,76.20
2018-10-19T05:19:16.310Z,76.10
2018-10-19T05:24:45.819Z,76.20
2018-10-19T05:30:14.980Z,76.20
2018-10-19T05:35:44.227Z,76.30
2018-10-19T05:41:13.465Z,76.30
2018-10-19T05:46:42.689Z,76.40
2018-10-19T05:52:11.980Z,76.60
2018-10-19T05:57:41.139Z,77.00
2018-10-19T06:03:10.421Z,77.40
2018-10-19T06:08:39.769Z,77.60
2018-10-19T06:14:09.394Z,77.80
2018-10-19T06:19:38.780Z,78.20
2018-10-19T06:25:08.068Z,78.40
2018-10-19T06:30:37.338Z,78.60
2018-10-19T06:36:06.720Z,78.70
2018-10-19T06:41:36.051Z,78.90
2018-10-19T06:47:05.707Z,78.90
2018-10-19T06:52:35.012Z,79.00
2018-10-19T06:58:04.384Z,78.90
2018-10-19T07:03:33.732Z,78.90
2018-10-19T07:09:03.245Z,79.00
2018-10-19T07:14:32.580Z,79.00
2018-10-19T07:20:01.986Z,79.10
2018-10-19T07:25:31.288Z,79.00
2018-10-19T07:31:00.650Z,79.20
2018-10-19T07:36:30.004Z,79.20
2018-10-19T07:41:59.386Z,79.20
2018-10-19T07:47:28.799Z,79.30
2018-10-19T07:52:58.212Z,79.50
2018-10-19T07:58:27.534Z,79.60
2018-10-19T08:03:56.841Z,79.60
2018-10-19T08:09:26.293Z,79.80
2018-10-19T08:14:55.843Z,80.00
2018-10-19T08:20:27.236Z,80.30
2018-10-19T08:25:56.614Z,80.40
2018-10-19T08:31:25.963Z,80.60
2018-10-19T08:36:55.292Z,80.90
2018-10-19T08:42:24.533Z,81.30
2018-10-19T08:47:53.879Z,81.60
2018-10-19T08:53:23.366Z,81.80
2018-10-19T08:58:52.711Z,82.00
2018-10-19T09:04:22.092Z,81.10
2018-10-19T09:09:51.388Z,81.30
2018-10-19T09:15:20.803Z,81.40
2018-10-19T09:20:50.564Z,81.30
2018-10-19T09:26:19.917Z,81.60
2018-10-19T09:31:49.239Z,81.80
2018-10-19T09:37:18.603Z,81.90
2018-10-19T09:42:47.980Z,82.20
2018-10-19T09:48:23.193Z,82.10
2018-10-19T09:53:52.726Z,82.00
2018-10-19T09:59:22.046Z,81.70
2018-10-19T10:04:51.315Z,81.90
2018-10-19T10:10:20.636Z,82.30
2018-10-19T10:15:50.200Z,81.90
2018-10-19T10:21:19.572Z,81.60
2018-10-19T10:26:49.902Z,81.70
2018-10-19T10:32:19.403Z,81.70
2018-10-19T10:37:48.736Z,81.30
2018-10-19T10:43:18.039Z,81.20
2018-10-19T10:48:47.301Z,81.20
2018-10-19T10:54:16.642Z,80.70
2018-10-19T10:59:45.956Z,79.90
2018-10-19T11:05:15.409Z,79.70
2018-10-19T11:10:44.850Z,79.30
2018-10-19T11:16:14.577Z,78.40
2018-10-19T11:21:43.764Z,77.80
2018-10-19T11:27:13.092Z,76.80
2018-10-19T11:32:42.330Z,76.80
2018-10-19T11:38:11.557Z,76.50
2018-10-19T11:43:40.920Z,74.90
2018-10-19T11:49:10.219Z,74.60
2018-10-19T11:54:39.585Z,73.90
2018-10-19T12:00:09.525Z,73.50
2018-10-19T12:05:38.929Z,73.50
2018-10-19T12:11:08.358Z,73.10
2018-10-19T12:16:38.058Z,72.80
2018-10-19T12:22:07.590Z,72.40
2018-10-19T12:27:41.946Z,71.90
2018-10-19T12:33:12.915Z,71.50
2018-10-19T12:38:43.423Z,71.00
2018-10-19T12:44:13.862Z,70.80
2018-10-19T12:49:44.773Z,70.20
2018-10-19T12:55:14.316Z,69.50
2018-10-19T13:00:43.701Z,68.70
2018-10-19T13:06:13.349Z,66.90
2018-10-19T13:11:42.737Z,65.80
2018-10-19T13:17:12.336Z,65.80
2018-10-19T13:22:42.716Z,64.60
2018-10-19T13:28:12.824Z,64.10
2018-10-19T13:33:42.390Z,62.20
2018-10-19T13:39:13.152Z,60.00
2018-10-19T13:44:43.703Z,57.60
2018-10-19T13:50:13.023Z,56.30
2018-10-19T13:55:42.437Z,54.80
2018-10-19T14:01:11.862Z,52.30
2018-10-19T14:06:41.141Z,52.50
2018-10-19T14:12:10.454Z,52.30
2018-10-19T14:17:41.010Z,52.50
2018-10-19T14:23:10.412Z,50.80
2018-10-19T14:28:39.794Z,50.80
2018-10-19T14:34:09.112Z,50.90
2018-10-19T14:39:38.532Z,50.30
2018-10-19T14:45:09.076Z,50.20
2018-10-19T14:50:38.324Z,50.60
2018-10-19T14:56:07.615Z,50.40
2018-10-19T15:01:36.962Z,50.80
2018-10-19T15:07:09.277Z,52.30
2018-10-19T15:12:38.638Z,52.60
2018-10-19T15:18:08.418Z,53.40
2018-10-19T15:23:37.632Z,54.60
2018-10-19T15:29:09.004Z,55.80
2018-10-19T15:34:38.432Z,56.60
2018-10-19T15:40:09.760Z,57.40
2018-10-19T15:45:40.116Z,58.10
2018-10-19T15:51:10.700Z,58.80
2018-10-19T15:56:41.171Z,59.30
2018-10-19T16:02:10.400Z,60.20
2018-10-19T16:07:39.727Z,60.70
2018-10-19T16:13:09.017Z,61.10
2018-10-19T16:18:42.651Z,61.90
2018-10-19T16:24:12.214Z,62.40
2018-10-19T16:29:41.449Z,62.70
2018-10-19T16:35:10.734Z,63.40
2018-10-19T16:40:40.025Z,64.50
2018-10-19T16:46:09.330Z,64.30
2018-10-19T16:51:39.647Z,64.60
2018-10-19T16:57:09.103Z,65.00
2018-10-19T17:02:38.571Z,65.30
2018-10-19T17:08:08.013Z,65.70
2018-10-19T17:13:37.395Z,66.20
2018-10-19T17:19:06.982Z,66.50
2018-10-19T17:24:36.294Z,66.80
2018-10-19T17:30:08.193Z,67.20
2018-10-19T17:35:37.477Z,67.50
2018-10-19T17:41:06.954Z,67.70
2018-10-19T17:46:41.850Z,68.00
2018-10-19T17:52:12.471Z,68.30
2018-10-19T17:57:43.911Z,68.60
2018-10-19T18:03:13.524Z,71.60
2018-10-19T18:08:43.143Z,69.80
2018-10-19T18:14:15.488Z,70.00
2018-10-19T18:19:51.210Z,70.10
2018-10-19T18:25:25.983Z,70.30
2018-10-19T18:31:04.190Z,70.40
2018-10-19T18:36:36.146Z,70.60
2018-10-19T18:42:09.312Z,70.70
2018-10-19T18:47:47.129Z,70.90
2018-10-19T18:53:20.001Z,71.20
2018-10-19T18:58:52.124Z,71.40
2018-10-19T19:04:26.352Z,71.60
2018-10-19T19:10:02.315Z,71.80
2018-10-19T19:15:40.355Z,72.00
2018-10-19T19:21:14.421Z,72.10
2018-10-19T19:26:46.687Z,72.40
2018-10-19T19:32:18.477Z,72.50
2018-10-19T19:37:49.459Z,72.70
2018-10-19T19:43:19.855Z,72.80
2018-10-19T19:48:55.002Z,73.00
2018-10-19T19:54:24.645Z,72.90
2018-10-19T19:59:59.672Z,73.10
2018-10-19T20:05:29.686Z,73.10
2018-10-19T20:10:59.383Z,73.40
2018-10-19T20:16:28.945Z,73.50
2018-10-19T20:21:59.306Z,74.70
2018-10-19T20:27:28.882Z,74.80
2018-10-19T20:32:58.236Z,75.10
2018-10-19T20:38:30.393Z,75.10
2018-10-19T20:44:02.141Z,75.10
2018-10-19T20:49:31.494Z,75.20
2018-10-19T20:55:01.307Z,75.20
2018-10-19T21:00:30.990Z,75.30
2018-10-19T21:06:00.353Z,75.40
2018-10-19T21:11:31.020Z,75.40
2018-10-19T21:17:01.498Z,76.10
2018-10-19T21:22:31.642Z,76.00
2018-10-19T21:28:01.324Z,76.00
2018-10-19T21:33:31.077Z,76.10
2018-10-19T21:39:01.792Z,76.30
2018-10-19T21:44:31.830Z,76.10
2018-10-19T21:50:03.379Z,76.10
2018-10-19T21:55:34.364Z,76.20
2018-10-19T22:01:04.488Z,76.40
2018-10-19T22:06:34.191Z,76.40
2018-10-19T22:12:04.931Z,76.50
2018-10-19T22:17:34.735Z,76.50
2018-10-19T22:23:06.196Z,76.50
2018-10-19T22:28:36.963Z,76.50
2018-10-19T22:34:07.557Z,76.50
2018-10-19T22:39:41.537Z,76.40
2018-10-19T22:45:11.614Z,76.40
2018-10-19T22:50:43.759Z,76.50
2018-10-19T22:56:13.609Z,76.70
2018-10-19T23:01:43.141Z,76.80
2018-10-19T23:07:13.579Z,76.90
2018-10-19T23:12:43.120Z,76.90
2018-10-19T23:18:14.942Z,76.90
2018-10-19T23:23:44.649Z,77.00
2018-10-19T23:29:15.299Z,77.00
2018-10-19T23:34:44.604Z,77.10
2018-10-19T23:40:15.096Z,77.10
2018-10-19T23:45:44.577Z,77.10
2018-10-19T23:51:14.005Z,77.20
2018-10-19T23:56:43.362Z,77.10
